sensor_id;sensor_type;location;lat;lon;timestamp;temperature;humidity
40756;DHT22;26461;45.630;9.418;2024-03-07T00:00:10;10.20;84.60
40756;DHT22;26461;45.630;9.418;2024-03-07T00:03:27;10.20;84.50
40756;DHT22;26461;45.630;9.418;2024-03-07T00:06:32;10.30;84.90
40756;DHT22;26461;45.630;9.418;2024-03-07T00:09:42;10.20;84.90
40756;DHT22;26461;45.630;9.418;2024-03-07T00:12:47;10.30;84.80
40756;DHT22;26461;45.630;9.418;2024-03-07T00:15:57;10.30;84.90
40756;DHT22;26461;45.630;9.418;2024-03-07T00:19:02;10.30;84.80
40756;DHT22;26461;45.630;9.418;2024-03-07T00:22:12;10.30;84.90
40756;DHT22;26461;45.630;9.418;2024-03-07T00:25:17;10.30;84.90
40756;DHT22;26461;45.630;9.418;2024-03-07T00:28:23;10.30;84.90
40756;DHT22;26461;45.630;9.418;2024-03-07T00:31:31;10.30;84.90
40756;DHT22;26461;45.630;9.418;2024-03-07T00:34:41;10.30;85.10
40756;DHT22;26461;45.630;9.418;2024-03-07T00:37:51;10.30;85.20
40756;DHT22;26461;45.630;9.418;2024-03-07T00:41:01;10.30;85.00
40756;DHT22;26461;45.630;9.418;2024-03-07T00:44:11;10.30;84.80
40756;DHT22;26461;45.630;9.418;2024-03-07T00:47:21;10.20;84.70
40756;DHT22;26461;45.630;9.418;2024-03-07T00:50:31;10.20;84.70
40756;DHT22;26461;45.630;9.418;2024-03-07T00:53:36;10.20;84.70
40756;DHT22;26461;45.630;9.418;2024-03-07T00:56:41;10.20;84.50
40756;DHT22;26461;45.630;9.418;2024-03-07T00:59:46;10.20;84.50
40756;DHT22;26461;45.630;9.418;2024-03-07T01:02:52;10.20;84.50
40756;DHT22;26461;45.630;9.418;2024-03-07T01:05:57;10.30;84.30
40756;DHT22;26461;45.630;9.418;2024-03-07T01:09:02;10.20;84.10
40756;DHT22;26461;45.630;9.418;2024-03-07T01:12:12;10.20;84.10
40756;DHT22;26461;45.630;9.418;2024-03-07T01:15:17;10.20;84.50
40756;DHT22;26461;45.630;9.418;2024-03-07T01:18:27;10.20;84.40
40756;DHT22;26461;45.630;9.418;2024-03-07T01:21:33;10.30;84.30
40756;DHT22;26461;45.630;9.418;2024-03-07T01:24:38;10.20;84.10
40756;DHT22;26461;45.630;9.418;2024-03-07T01:27:49;10.20;83.90
40756;DHT22;26461;45.630;9.418;2024-03-07T01:30:59;10.20;83.90
40756;DHT22;26461;45.630;9.418;2024-03-07T01:34:03;10.20;83.90
40756;DHT22;26461;45.630;9.418;2024-03-07T01:37:08;10.20;83.90
40756;DHT22;26461;45.630;9.418;2024-03-07T01:40:18;10.20;83.90
40756;DHT22;26461;45.630;9.418;2024-03-07T01:43:24;10.20;83.90
40756;DHT22;26461;45.630;9.418;2024-03-07T01:46:29;10.20;83.90
40756;DHT22;26461;45.630;9.418;2024-03-07T01:49:34;10.10;84.00
40756;DHT22;26461;45.630;9.418;2024-03-07T01:52:44;10.10;83.90
40756;DHT22;26461;45.630;9.418;2024-03-07T01:55:50;10.10;83.90
40756;DHT22;26461;45.630;9.418;2024-03-07T01:59:01;10.20;84.00
40756;DHT22;26461;45.630;9.418;2024-03-07T02:02:07;10.10;84.00
40756;DHT22;26461;45.630;9.418;2024-03-07T02:05:12;10.10;84.00
40756;DHT22;26461;45.630;9.418;2024-03-07T02:08:23;10.10;84.00
40756;DHT22;26461;45.630;9.418;2024-03-07T02:11:28;10.10;84.00
40756;DHT22;26461;45.630;9.418;2024-03-07T02:14:38;10.00;84.10
40756;DHT22;26461;45.630;9.418;2024-03-07T02:17:47;10.00;84.20
40756;DHT22;26461;45.630;9.418;2024-03-07T02:20:57;10.10;84.30
40756;DHT22;26461;45.630;9.418;2024-03-07T02:24:07;10.00;84.30
40756;DHT22;26461;45.630;9.418;2024-03-07T02:27:13;10.00;84.30
40756;DHT22;26461;45.630;9.418;2024-03-07T02:30:26;10.00;84.30
40756;DHT22;26461;45.630;9.418;2024-03-07T02:33:36;9.90;84.30
40756;DHT22;26461;45.630;9.418;2024-03-07T02:36:41;10.00;84.60
40756;DHT22;26461;45.630;9.418;2024-03-07T02:39:51;10.00;84.70
40756;DHT22;26461;45.630;9.418;2024-03-07T02:43:02;10.00;84.60
40756;DHT22;26461;45.630;9.418;2024-03-07T02:46:14;9.90;84.50
40756;DHT22;26461;45.630;9.418;2024-03-07T02:49:24;9.80;84.40
40756;DHT22;26461;45.630;9.418;2024-03-07T02:52:34;9.90;84.50
40756;DHT22;26461;45.630;9.418;2024-03-07T02:55:44;9.90;84.50
40756;DHT22;26461;45.630;9.418;2024-03-07T02:58:54;9.90;84.30
40756;DHT22;26461;45.630;9.418;2024-03-07T03:02:04;9.80;84.20
40756;DHT22;26461;45.630;9.418;2024-03-07T03:05:15;9.80;84.10
40756;DHT22;26461;45.630;9.418;2024-03-07T03:08:25;9.80;84.10
40756;DHT22;26461;45.630;9.418;2024-03-07T03:11:33;9.70;84.00
40756;DHT22;26461;45.630;9.418;2024-03-07T03:14:43;9.80;84.00
40756;DHT22;26461;45.630;9.418;2024-03-07T03:17:53;9.70;83.90
40756;DHT22;26461;45.630;9.418;2024-03-07T03:21:03;9.80;83.70
40756;DHT22;26461;45.630;9.418;2024-03-07T03:24:13;9.70;83.50
40756;DHT22;26461;45.630;9.418;2024-03-07T03:27:17;9.70;82.90
40756;DHT22;26461;45.630;9.418;2024-03-07T03:30:22;9.70;82.60
40756;DHT22;26461;45.630;9.418;2024-03-07T03:33:29;9.70;82.20
40756;DHT22;26461;45.630;9.418;2024-03-07T03:36:39;9.60;82.10
40756;DHT22;26461;45.630;9.418;2024-03-07T03:39:49;9.70;82.10
40756;DHT22;26461;45.630;9.418;2024-03-07T03:43:01;9.60;81.80
40756;DHT22;26461;45.630;9.418;2024-03-07T03:46:11;9.60;81.90
40756;DHT22;26461;45.630;9.418;2024-03-07T03:49:21;9.60;82.00
40756;DHT22;26461;45.630;9.418;2024-03-07T03:52:31;9.60;82.10
40756;DHT22;26461;45.630;9.418;2024-03-07T03:55:36;9.50;82.00
40756;DHT22;26461;45.630;9.418;2024-03-07T03:58:41;9.60;82.00
40756;DHT22;26461;45.630;9.418;2024-03-07T04:01:48;9.40;81.70
40756;DHT22;26461;45.630;9.418;2024-03-07T04:04:53;9.50;81.60
40756;DHT22;26461;45.630;9.418;2024-03-07T04:08:03;9.50;81.60
40756;DHT22;26461;45.630;9.418;2024-03-07T04:11:13;9.40;81.60
40756;DHT22;26461;45.630;9.418;2024-03-07T04:14:18;9.50;81.70
40756;DHT22;26461;45.630;9.418;2024-03-07T04:17:24;9.40;81.50
40756;DHT22;26461;45.630;9.418;2024-03-07T04:20:34;9.40;81.60
40756;DHT22;26461;45.630;9.418;2024-03-07T04:23:40;9.40;81.80
40756;DHT22;26461;45.630;9.418;2024-03-07T04:26:50;9.40;82.00
40756;DHT22;26461;45.630;9.418;2024-03-07T04:29:58;9.30;81.90
40756;DHT22;26461;45.630;9.418;2024-03-07T04:33:07;9.30;81.80
40756;DHT22;26461;45.630;9.418;2024-03-07T04:36:13;9.30;81.70
40756;DHT22;26461;45.630;9.418;2024-03-07T04:39:22;9.30;81.20
40756;DHT22;26461;45.630;9.418;2024-03-07T04:42:49;9.30;80.90
40756;DHT22;26461;45.630;9.418;2024-03-07T04:46:02;9.30;80.60
40756;DHT22;26461;45.630;9.418;2024-03-07T04:49:12;9.30;80.10
40756;DHT22;26461;45.630;9.418;2024-03-07T04:52:23;9.30;79.80
40756;DHT22;26461;45.630;9.418;2024-03-07T04:55:28;9.30;79.40
40756;DHT22;26461;45.630;9.418;2024-03-07T04:58:34;9.30;79.30
40756;DHT22;26461;45.630;9.418;2024-03-07T05:01:44;9.30;78.90
40756;DHT22;26461;45.630;9.418;2024-03-07T05:04:50;9.30;78.70
40756;DHT22;26461;45.630;9.418;2024-03-07T05:07:56;9.20;78.60
40756;DHT22;26461;45.630;9.418;2024-03-07T05:11:06;9.20;78.30
40756;DHT22;26461;45.630;9.418;2024-03-07T05:14:16;9.20;79.00
40756;DHT22;26461;45.630;9.418;2024-03-07T05:17:21;9.20;77.90
40756;DHT22;26461;45.630;9.418;2024-03-07T05:20:27;9.20;78.20
40756;DHT22;26461;45.630;9.418;2024-03-07T05:23:38;9.10;78.00
40756;DHT22;26461;45.630;9.418;2024-03-07T05:26:43;9.10;77.80
40756;DHT22;26461;45.630;9.418;2024-03-07T05:29:55;9.10;78.40
40756;DHT22;26461;45.630;9.418;2024-03-07T05:33:05;9.10;78.70
40756;DHT22;26461;45.630;9.418;2024-03-07T05:36:12;9.10;78.40
40756;DHT22;26461;45.630;9.418;2024-03-07T05:39:25;9.10;77.90
40756;DHT22;26461;45.630;9.418;2024-03-07T05:42:31;9.00;77.30
40756;DHT22;26461;45.630;9.418;2024-03-07T05:45:41;9.00;77.10
40756;DHT22;26461;45.630;9.418;2024-03-07T05:48:55;9.00;77.00
40756;DHT22;26461;45.630;9.418;2024-03-07T05:52:09;9.00;77.00
40756;DHT22;26461;45.630;9.418;2024-03-07T05:55:14;8.90;77.00
40756;DHT22;26461;45.630;9.418;2024-03-07T05:58:21;8.90;77.50
40756;DHT22;26461;45.630;9.418;2024-03-07T06:01:27;8.90;78.40
40756;DHT22;26461;45.630;9.418;2024-03-07T06:04:33;8.90;78.10
40756;DHT22;26461;45.630;9.418;2024-03-07T06:07:40;8.80;78.60
40756;DHT22;26461;45.630;9.418;2024-03-07T06:10:48;8.80;78.10
40756;DHT22;26461;45.630;9.418;2024-03-07T06:13:57;8.80;78.30
40756;DHT22;26461;45.630;9.418;2024-03-07T06:20:36;8.70;78.30
40756;DHT22;26461;45.630;9.418;2024-03-07T06:23:54;8.60;78.50
40756;DHT22;26461;45.630;9.418;2024-03-07T06:27:08;8.60;79.30
40756;DHT22;26461;45.630;9.418;2024-03-07T06:31:08;8.60;80.00
40756;DHT22;26461;45.630;9.418;2024-03-07T06:34:38;8.60;80.80
40756;DHT22;26461;45.630;9.418;2024-03-07T06:38:17;8.50;80.60
40756;DHT22;26461;45.630;9.418;2024-03-07T06:41:47;8.60;80.90
40756;DHT22;26461;45.630;9.418;2024-03-07T06:50:32;8.60;81.40
40756;DHT22;26461;45.630;9.418;2024-03-07T06:53:38;8.70;81.20
40756;DHT22;26461;45.630;9.418;2024-03-07T06:56:45;8.70;81.10
40756;DHT22;26461;45.630;9.418;2024-03-07T06:59:51;8.70;81.00
40756;DHT22;26461;45.630;9.418;2024-03-07T07:02:58;8.70;81.40
40756;DHT22;26461;45.630;9.418;2024-03-07T07:06:03;8.70;82.00
40756;DHT22;26461;45.630;9.418;2024-03-07T07:09:16;8.70;82.40
40756;DHT22;26461;45.630;9.418;2024-03-07T07:12:26;8.70;83.00
40756;DHT22;26461;45.630;9.418;2024-03-07T07:15:37;8.70;83.10
40756;DHT22;26461;45.630;9.418;2024-03-07T07:18:42;9.30;83.70
40756;DHT22;26461;45.630;9.418;2024-03-07T07:21:53;8.80;83.30
40756;DHT22;26461;45.630;9.418;2024-03-07T07:25:05;8.80;83.30
40756;DHT22;26461;45.630;9.418;2024-03-07T07:28:15;8.90;83.80
40756;DHT22;26461;45.630;9.418;2024-03-07T07:31:26;8.90;83.90
40756;DHT22;26461;45.630;9.418;2024-03-07T07:34:32;9.00;83.70
40756;DHT22;26461;45.630;9.418;2024-03-07T07:37:44;9.00;83.50
40756;DHT22;26461;45.630;9.418;2024-03-07T07:40:49;9.10;83.50
40756;DHT22;26461;45.630;9.418;2024-03-07T07:43:55;9.10;83.50
40756;DHT22;26461;45.630;9.418;2024-03-07T07:47:07;9.10;83.20
40756;DHT22;26461;45.630;9.418;2024-03-07T07:50:19;9.20;83.30
40756;DHT22;26461;45.630;9.418;2024-03-07T07:53:25;9.20;82.90
40756;DHT22;26461;45.630;9.418;2024-03-07T07:56:35;9.30;82.20
40756;DHT22;26461;45.630;9.418;2024-03-07T07:59:41;9.30;81.70
40756;DHT22;26461;45.630;9.418;2024-03-07T08:02:56;9.40;81.00
40756;DHT22;26461;45.630;9.418;2024-03-07T08:06:02;9.50;80.90
40756;DHT22;26461;45.630;9.418;2024-03-07T08:09:08;9.50;80.80
40756;DHT22;26461;45.630;9.418;2024-03-07T08:12:15;9.60;80.70
40756;DHT22;26461;45.630;9.418;2024-03-07T08:15:21;9.60;80.50
40756;DHT22;26461;45.630;9.418;2024-03-07T08:18:31;9.70;80.30
40756;DHT22;26461;45.630;9.418;2024-03-07T08:21:41;9.70;80.20
40756;DHT22;26461;45.630;9.418;2024-03-07T08:24:46;9.80;80.00
40756;DHT22;26461;45.630;9.418;2024-03-07T08:27:57;9.80;79.80
40756;DHT22;26461;45.630;9.418;2024-03-07T08:31:03;9.90;79.70
40756;DHT22;26461;45.630;9.418;2024-03-07T08:34:09;9.90;79.40
40756;DHT22;26461;45.630;9.418;2024-03-07T08:37:15;10.00;79.40
40756;DHT22;26461;45.630;9.418;2024-03-07T08:40:22;10.10;79.10
40756;DHT22;26461;45.630;9.418;2024-03-07T08:43:33;10.10;78.50
40756;DHT22;26461;45.630;9.418;2024-03-07T08:46:38;10.10;78.10
40756;DHT22;26461;45.630;9.418;2024-03-07T08:49:48;10.20;77.30
40756;DHT22;26461;45.630;9.418;2024-03-07T08:52:59;10.20;77.00
40756;DHT22;26461;45.630;9.418;2024-03-07T08:56:10;10.20;77.10
40756;DHT22;26461;45.630;9.418;2024-03-07T08:59:21;10.30;76.70
40756;DHT22;26461;45.630;9.418;2024-03-07T09:02:27;10.40;76.50
40756;DHT22;26461;45.630;9.418;2024-03-07T09:05:32;10.40;76.30
40756;DHT22;26461;45.630;9.418;2024-03-07T09:08:44;10.40;75.90
40756;DHT22;26461;45.630;9.418;2024-03-07T09:11:54;10.50;75.50
40756;DHT22;26461;45.630;9.418;2024-03-07T09:15:05;10.50;75.20
40756;DHT22;26461;45.630;9.418;2024-03-07T09:18:10;10.50;75.00
40756;DHT22;26461;45.630;9.418;2024-03-07T09:21:22;10.60;74.90
40756;DHT22;26461;45.630;9.418;2024-03-07T09:24:27;10.60;75.00
40756;DHT22;26461;45.630;9.418;2024-03-07T09:27:33;10.70;75.00
40756;DHT22;26461;45.630;9.418;2024-03-07T09:30:38;10.70;74.40
40756;DHT22;26461;45.630;9.418;2024-03-07T09:33:44;10.70;74.30
40756;DHT22;26461;45.630;9.418;2024-03-07T09:36:50;10.70;74.10
40756;DHT22;26461;45.630;9.418;2024-03-07T09:40:01;10.80;74.40
40756;DHT22;26461;45.630;9.418;2024-03-07T09:43:14;10.80;74.70
40756;DHT22;26461;45.630;9.418;2024-03-07T09:46:22;10.90;74.70
40756;DHT22;26461;45.630;9.418;2024-03-07T09:49:33;10.90;74.60
40756;DHT22;26461;45.630;9.418;2024-03-07T09:52:42;11.00;74.50
40756;DHT22;26461;45.630;9.418;2024-03-07T09:55:54;11.00;74.20
40756;DHT22;26461;45.630;9.418;2024-03-07T09:59:05;11.10;73.90
40756;DHT22;26461;45.630;9.418;2024-03-07T10:02:21;11.10;73.40
40756;DHT22;26461;45.630;9.418;2024-03-07T10:05:32;11.10;73.30
40756;DHT22;26461;45.630;9.418;2024-03-07T10:08:43;11.10;73.10
40756;DHT22;26461;45.630;9.418;2024-03-07T10:11:59;11.10;73.10
40756;DHT22;26461;45.630;9.418;2024-03-07T10:15:10;11.20;73.20
40756;DHT22;26461;45.630;9.418;2024-03-07T10:18:18;11.20;73.20
40756;DHT22;26461;45.630;9.418;2024-03-07T10:21:27;11.20;73.10
40756;DHT22;26461;45.630;9.418;2024-03-07T10:24:32;11.20;72.80
40756;DHT22;26461;45.630;9.418;2024-03-07T10:27:44;11.20;72.80
40756;DHT22;26461;45.630;9.418;2024-03-07T10:30:53;11.30;73.00
40756;DHT22;26461;45.630;9.418;2024-03-07T10:34:02;11.30;72.80
40756;DHT22;26461;45.630;9.418;2024-03-07T10:37:08;11.40;73.00
40756;DHT22;26461;45.630;9.418;2024-03-07T10:40:14;11.40;72.50
40756;DHT22;26461;45.630;9.418;2024-03-07T10:43:29;11.40;72.50
40756;DHT22;26461;45.630;9.418;2024-03-07T10:46:38;11.50;72.40
40756;DHT22;26461;45.630;9.418;2024-03-07T10:53:52;11.50;72.60
40756;DHT22;26461;45.630;9.418;2024-03-07T10:57:41;11.50;72.70
40756;DHT22;26461;45.630;9.418;2024-03-07T11:00:43;11.60;72.40
40756;DHT22;26461;45.630;9.418;2024-03-07T11:03:56;11.60;72.30
40756;DHT22;26461;45.630;9.418;2024-03-07T11:07:08;11.60;72.30
40756;DHT22;26461;45.630;9.418;2024-03-07T11:10:21;11.70;72.40
40756;DHT22;26461;45.630;9.418;2024-03-07T11:13:26;11.70;72.30
40756;DHT22;26461;45.630;9.418;2024-03-07T11:16:40;11.70;72.10
40756;DHT22;26461;45.630;9.418;2024-03-07T11:19:46;11.70;72.30
40756;DHT22;26461;45.630;9.418;2024-03-07T11:22:57;11.70;72.20
40756;DHT22;26461;45.630;9.418;2024-03-07T11:26:04;11.80;72.40
40756;DHT22;26461;45.630;9.418;2024-03-07T11:29:49;11.80;72.70
40756;DHT22;26461;45.630;9.418;2024-03-07T11:33:03;11.80;72.70
40756;DHT22;26461;45.630;9.418;2024-03-07T11:36:43;11.90;72.90
40756;DHT22;26461;45.630;9.418;2024-03-07T11:39:56;11.90;73.60
40756;DHT22;26461;45.630;9.418;2024-03-07T11:43:04;11.90;74.00
40756;DHT22;26461;45.630;9.418;2024-03-07T11:46:17;12.00;73.40
40756;DHT22;26461;45.630;9.418;2024-03-07T11:49:31;11.90;73.00
40756;DHT22;26461;45.630;9.418;2024-03-07T11:52:41;11.90;72.40
40756;DHT22;26461;45.630;9.418;2024-03-07T11:55:49;12.00;72.10
40756;DHT22;26461;45.630;9.418;2024-03-07T11:58:55;12.00;72.20
40756;DHT22;26461;45.630;9.418;2024-03-07T12:02:02;12.10;72.60
40756;DHT22;26461;45.630;9.418;2024-03-07T12:05:08;12.10;73.00
40756;DHT22;26461;45.630;9.418;2024-03-07T12:08:14;12.10;72.80
40756;DHT22;26461;45.630;9.418;2024-03-07T12:11:25;12.10;72.60
40756;DHT22;26461;45.630;9.418;2024-03-07T12:14:36;12.10;72.80
40756;DHT22;26461;45.630;9.418;2024-03-07T12:17:43;12.20;73.40
40756;DHT22;26461;45.630;9.418;2024-03-07T12:20:53;12.30;72.00
40756;DHT22;26461;45.630;9.418;2024-03-07T12:24:14;12.30;71.80
40756;DHT22;26461;45.630;9.418;2024-03-07T12:27:28;12.30;71.40
40756;DHT22;26461;45.630;9.418;2024-03-07T12:33:50;12.40;71.40
40756;DHT22;26461;45.630;9.418;2024-03-07T12:37:01;12.40;71.60
40756;DHT22;26461;45.630;9.418;2024-03-07T12:40:12;12.40;72.00
40756;DHT22;26461;45.630;9.418;2024-03-07T12:43:22;12.50;75.80
40756;DHT22;26461;45.630;9.418;2024-03-07T12:46:28;12.60;76.10
40756;DHT22;26461;45.630;9.418;2024-03-07T12:49:42;12.60;74.10
40756;DHT22;26461;45.630;9.418;2024-03-07T12:52:53;12.60;73.20
40756;DHT22;26461;45.630;9.418;2024-03-07T12:55:58;12.70;72.50
40756;DHT22;26461;45.630;9.418;2024-03-07T12:59:09;12.70;72.00
40756;DHT22;26461;45.630;9.418;2024-03-07T13:02:19;12.70;72.00
40756;DHT22;26461;45.630;9.418;2024-03-07T13:05:30;12.80;72.20
40756;DHT22;26461;45.630;9.418;2024-03-07T13:08:35;12.80;72.60
40756;DHT22;26461;45.630;9.418;2024-03-07T13:11:45;12.90;72.20
40756;DHT22;26461;45.630;9.418;2024-03-07T13:14:57;12.90;71.30
40756;DHT22;26461;45.630;9.418;2024-03-07T13:18:05;12.90;71.30
40756;DHT22;26461;45.630;9.418;2024-03-07T13:21:16;13.00;71.60
40756;DHT22;26461;45.630;9.418;2024-03-07T13:24:23;13.00;71.70
40756;DHT22;26461;45.630;9.418;2024-03-07T13:27:28;13.00;71.00
40756;DHT22;26461;45.630;9.418;2024-03-07T13:30:34;13.10;70.60
40756;DHT22;26461;45.630;9.418;2024-03-07T13:33:41;13.10;69.20
40756;DHT22;26461;45.630;9.418;2024-03-07T13:36:46;13.10;68.20
40756;DHT22;26461;45.630;9.418;2024-03-07T13:39:52;13.10;69.00
40756;DHT22;26461;45.630;9.418;2024-03-07T13:42:59;13.20;68.50
40756;DHT22;26461;45.630;9.418;2024-03-07T13:46:10;13.20;66.80
40756;DHT22;26461;45.630;9.418;2024-03-07T13:49:16;13.20;65.80
40756;DHT22;26461;45.630;9.418;2024-03-07T13:52:27;13.30;66.10
40756;DHT22;26461;45.630;9.418;2024-03-07T13:56:03;13.30;67.00
40756;DHT22;26461;45.630;9.418;2024-03-07T14:27:30;13.80;63.50
40756;DHT22;26461;45.630;9.418;2024-03-07T14:30:51;13.80;63.10
40756;DHT22;26461;45.630;9.418;2024-03-07T14:37:25;14.00;62.80
40756;DHT22;26461;45.630;9.418;2024-03-07T14:40:30;14.00;62.30
40756;DHT22;26461;45.630;9.418;2024-03-07T14:43:37;14.10;62.40
40756;DHT22;26461;45.630;9.418;2024-03-07T14:46:42;14.10;62.10
40756;DHT22;26461;45.630;9.418;2024-03-07T14:49:52;14.10;62.10
40756;DHT22;26461;45.630;9.418;2024-03-07T14:53:04;14.20;62.50
40756;DHT22;26461;45.630;9.418;2024-03-07T14:56:09;14.30;61.90
40756;DHT22;26461;45.630;9.418;2024-03-07T14:59:21;14.40;61.50
40756;DHT22;26461;45.630;9.418;2024-03-07T15:02:31;14.40;61.10
40756;DHT22;26461;45.630;9.418;2024-03-07T15:05:37;14.40;61.00
40756;DHT22;26461;45.630;9.418;2024-03-07T15:08:43;14.50;61.00
40756;DHT22;26461;45.630;9.418;2024-03-07T15:11:53;14.60;60.80
40756;DHT22;26461;45.630;9.418;2024-03-07T15:14:58;14.60;60.20
40756;DHT22;26461;45.630;9.418;2024-03-07T15:18:09;14.60;60.60
40756;DHT22;26461;45.630;9.418;2024-03-07T15:21:15;14.70;60.50
40756;DHT22;26461;45.630;9.418;2024-03-07T15:24:22;14.70;60.00
40756;DHT22;26461;45.630;9.418;2024-03-07T15:27:32;14.70;60.10
40756;DHT22;26461;45.630;9.418;2024-03-07T15:30:46;14.70;60.50
40756;DHT22;26461;45.630;9.418;2024-03-07T15:33:52;14.80;60.50
40756;DHT22;26461;45.630;9.418;2024-03-07T15:37:03;14.80;60.60
40756;DHT22;26461;45.630;9.418;2024-03-07T15:40:09;14.80;60.60
40756;DHT22;26461;45.630;9.418;2024-03-07T15:43:22;14.90;60.60
40756;DHT22;26461;45.630;9.418;2024-03-07T15:46:28;14.90;60.00
40756;DHT22;26461;45.630;9.418;2024-03-07T15:49:38;14.90;59.80
40756;DHT22;26461;45.630;9.418;2024-03-07T15:52:47;14.90;59.40
40756;DHT22;26461;45.630;9.418;2024-03-07T15:55:52;14.90;59.50
40756;DHT22;26461;45.630;9.418;2024-03-07T15:58:58;14.90;59.50
40756;DHT22;26461;45.630;9.418;2024-03-07T16:02:09;15.00;59.50
40756;DHT22;26461;45.630;9.418;2024-03-07T16:08:39;15.00;59.40
40756;DHT22;26461;45.630;9.418;2024-03-07T16:11:49;15.00;59.50
40756;DHT22;26461;45.630;9.418;2024-03-07T16:15:00;15.10;59.50
40756;DHT22;26461;45.630;9.418;2024-03-07T16:18:14;15.20;58.90
40756;DHT22;26461;45.630;9.418;2024-03-07T16:21:24;15.20;58.70
40756;DHT22;26461;45.630;9.418;2024-03-07T16:24:35;15.20;58.80
40756;DHT22;26461;45.630;9.418;2024-03-07T16:27:51;15.30;59.10
40756;DHT22;26461;45.630;9.418;2024-03-07T16:30:58;15.30;58.90
40756;DHT22;26461;45.630;9.418;2024-03-07T16:34:11;15.20;58.60
40756;DHT22;26461;45.630;9.418;2024-03-07T16:37:16;15.30;58.60
40756;DHT22;26461;45.630;9.418;2024-03-07T16:40:23;15.30;58.50
40756;DHT22;26461;45.630;9.418;2024-03-07T16:43:34;15.30;58.70
40756;DHT22;26461;45.630;9.418;2024-03-07T16:46:42;15.20;58.90
40756;DHT22;26461;45.630;9.418;2024-03-07T16:49:47;15.20;58.80
40756;DHT22;26461;45.630;9.418;2024-03-07T16:53:01;15.20;59.10
40756;DHT22;26461;45.630;9.418;2024-03-07T16:56:10;15.20;59.20
40756;DHT22;26461;45.630;9.418;2024-03-07T16:59:17;15.10;59.50
40756;DHT22;26461;45.630;9.418;2024-03-07T17:02:28;15.10;59.50
40756;DHT22;26461;45.630;9.418;2024-03-07T17:05:35;15.10;59.70
40756;DHT22;26461;45.630;9.418;2024-03-07T17:08:46;15.10;59.50
40756;DHT22;26461;45.630;9.418;2024-03-07T17:11:53;15.00;59.50
40756;DHT22;26461;45.630;9.418;2024-03-07T17:14:58;14.90;59.40
40756;DHT22;26461;45.630;9.418;2024-03-07T17:18:04;14.90;59.70
40756;DHT22;26461;45.630;9.418;2024-03-07T17:21:15;14.90;59.80
40756;DHT22;26461;45.630;9.418;2024-03-07T17:24:29;14.80;59.90
40756;DHT22;26461;45.630;9.418;2024-03-07T17:27:36;14.70;59.80
40756;DHT22;26461;45.630;9.418;2024-03-07T17:30:42;14.60;59.90
40756;DHT22;26461;45.630;9.418;2024-03-07T17:33:48;14.50;60.20
40756;DHT22;26461;45.630;9.418;2024-03-07T17:36:55;14.40;61.00
40756;DHT22;26461;45.630;9.418;2024-03-07T17:40:06;14.30;61.80
40756;DHT22;26461;45.630;9.418;2024-03-07T17:43:21;14.20;62.80
40756;DHT22;26461;45.630;9.418;2024-03-07T17:46:34;14.10;63.30
40756;DHT22;26461;45.630;9.418;2024-03-07T17:49:39;14.00;64.10
40756;DHT22;26461;45.630;9.418;2024-03-07T17:52:52;14.00;64.60
40756;DHT22;26461;45.630;9.418;2024-03-07T17:55:58;13.90;65.00
40756;DHT22;26461;45.630;9.418;2024-03-07T17:59:09;13.80;65.40
40756;DHT22;26461;45.630;9.418;2024-03-07T18:02:16;13.80;66.00
40756;DHT22;26461;45.630;9.418;2024-03-07T18:05:28;13.70;66.20
40756;DHT22;26461;45.630;9.418;2024-03-07T18:08:46;13.70;66.60
40756;DHT22;26461;45.630;9.418;2024-03-07T18:11:56;13.60;67.00
40756;DHT22;26461;45.630;9.418;2024-03-07T18:15:02;13.60;67.10
40756;DHT22;26461;45.630;9.418;2024-03-07T18:18:19;13.50;67.30
40756;DHT22;26461;45.630;9.418;2024-03-07T18:21:34;13.40;67.40
40756;DHT22;26461;45.630;9.418;2024-03-07T18:24:45;13.40;67.60
40756;DHT22;26461;45.630;9.418;2024-03-07T18:27:56;13.30;67.80
40756;DHT22;26461;45.630;9.418;2024-03-07T18:31:02;13.20;67.90
40756;DHT22;26461;45.630;9.418;2024-03-07T18:34:19;13.10;68.30
40756;DHT22;26461;45.630;9.418;2024-03-07T18:37:25;13.00;68.50
40756;DHT22;26461;45.630;9.418;2024-03-07T18:40:30;12.90;68.70
40756;DHT22;26461;45.630;9.418;2024-03-07T18:43:47;12.80;69.10
40756;DHT22;26461;45.630;9.418;2024-03-07T18:46:53;12.70;69.50
40756;DHT22;26461;45.630;9.418;2024-03-07T18:50:04;12.70;70.00
40756;DHT22;26461;45.630;9.418;2024-03-07T18:53:13;12.60;70.40
40756;DHT22;26461;45.630;9.418;2024-03-07T18:56:24;12.60;70.90
40756;DHT22;26461;45.630;9.418;2024-03-07T18:59:35;12.50;71.30
40756;DHT22;26461;45.630;9.418;2024-03-07T19:02:47;12.50;71.60
40756;DHT22;26461;45.630;9.418;2024-03-07T19:05:57;12.40;71.60
40756;DHT22;26461;45.630;9.418;2024-03-07T19:09:07;12.40;72.00
40756;DHT22;26461;45.630;9.418;2024-03-07T19:12:17;12.40;72.10
40756;DHT22;26461;45.630;9.418;2024-03-07T19:15:27;12.30;72.20
40756;DHT22;26461;45.630;9.418;2024-03-07T19:18:32;12.30;72.40
40756;DHT22;26461;45.630;9.418;2024-03-07T19:21:44;12.30;72.50
40756;DHT22;26461;45.630;9.418;2024-03-07T19:24:54;12.20;72.60
40756;DHT22;26461;45.630;9.418;2024-03-07T19:28:05;12.20;72.70
40756;DHT22;26461;45.630;9.418;2024-03-07T19:31:22;12.20;72.70
40756;DHT22;26461;45.630;9.418;2024-03-07T19:34:34;12.10;72.90
40756;DHT22;26461;45.630;9.418;2024-03-07T19:37:46;12.10;73.00
40756;DHT22;26461;45.630;9.418;2024-03-07T19:40:56;12.10;73.10
40756;DHT22;26461;45.630;9.418;2024-03-07T19:44:07;12.00;73.10
40756;DHT22;26461;45.630;9.418;2024-03-07T19:47:17;12.00;73.20
40756;DHT22;26461;45.630;9.418;2024-03-07T19:50:28;12.00;73.40
40756;DHT22;26461;45.630;9.418;2024-03-07T19:53:35;11.90;73.50
40756;DHT22;26461;45.630;9.418;2024-03-07T19:56:42;11.90;73.60
40756;DHT22;26461;45.630;9.418;2024-03-07T19:59:53;11.90;73.70
40756;DHT22;26461;45.630;9.418;2024-03-07T20:03:04;12.00;73.60
40756;DHT22;26461;45.630;9.418;2024-03-07T20:06:12;11.90;73.60
40756;DHT22;26461;45.630;9.418;2024-03-07T20:09:20;11.90;73.60
40756;DHT22;26461;45.630;9.418;2024-03-07T20:12:31;11.90;73.60
40756;DHT22;26461;45.630;9.418;2024-03-07T20:15:46;11.90;73.40
40756;DHT22;26461;45.630;9.418;2024-03-07T20:18:56;11.90;73.40
40756;DHT22;26461;45.630;9.418;2024-03-07T20:22:04;11.90;73.40
40756;DHT22;26461;45.630;9.418;2024-03-07T20:25:14;11.90;73.40
40756;DHT22;26461;45.630;9.418;2024-03-07T20:28:24;11.90;73.50
40756;DHT22;26461;45.630;9.418;2024-03-07T20:31:36;11.90;73.60
40756;DHT22;26461;45.630;9.418;2024-03-07T20:34:47;11.90;73.50
40756;DHT22;26461;45.630;9.418;2024-03-07T20:37:58;11.80;73.30
40756;DHT22;26461;45.630;9.418;2024-03-07T20:41:12;11.80;73.50
40756;DHT22;26461;45.630;9.418;2024-03-07T20:44:23;11.80;73.60
40756;DHT22;26461;45.630;9.418;2024-03-07T20:47:39;11.80;73.60
40756;DHT22;26461;45.630;9.418;2024-03-07T20:50:48;11.80;73.50
40756;DHT22;26461;45.630;9.418;2024-03-07T20:53:59;11.80;73.60